createdAt,value
2022-07-31T00:00:29.788Z,26.10
2022-07-31T00:02:59.051Z,26.00
2022-07-31T00:05:28.746Z,26.00
2022-07-31T00:07:57.228Z,25.90
2022-07-31T00:10:26.265Z,25.80
2022-07-31T00:12:56.124Z,25.80
2022-07-31T00:15:24.659Z,25.70
2022-07-31T00:17:53.126Z,25.80
2022-07-31T00:20:21.777Z,25.70
2022-07-31T00:22:50.689Z,25.70
2022-07-31T00:25:20.151Z,25.80
2022-07-31T00:27:48.654Z,25.80
2022-07-31T00:30:18.669Z,25.70
2022-07-31T00:32:47.203Z,25.70
2022-07-31T00:35:17.722Z,25.70
2022-07-31T00:37:46.288Z,25.60
2022-07-31T00:40:17.482Z,25.60
2022-07-31T00:42:46.325Z,25.50
2022-07-31T00:45:15.093Z,25.40
2022-07-31T00:47:46.309Z,25.50
2022-07-31T00:50:14.941Z,25.40
2022-07-31T00:52:43.662Z,25.40
2022-07-31T00:55:12.302Z,25.40
2022-07-31T00:57:41.119Z,25.30
2022-07-31T01:00:10.790Z,25.20
2022-07-31T01:02:46.603Z,25.20
2022-07-31T01:05:18.992Z,25.20
2022-07-31T01:07:49.007Z,25.20
2022-07-31T01:10:27.032Z,25.10
2022-07-31T01:12:58.348Z,25.10
2022-07-31T01:15:28.632Z,25.20
2022-07-31T01:17:58.032Z,25.20
2022-07-31T01:20:30.441Z,25.10
2022-07-31T01:23:18.646Z,25.10
2022-07-31T01:26:19.671Z,25.10
2022-07-31T01:29:11.931Z,25.00
2022-07-31T01:31:47.630Z,25.10
2022-07-31T01:34:24.837Z,25.10
2022-07-31T01:37:06.928Z,25.10
2022-07-31T01:39:44.692Z,25.10
2022-07-31T01:42:17.888Z,25.10
2022-07-31T01:44:54.822Z,25.10
2022-07-31T01:47:26.529Z,25.10
2022-07-31T01:49:57.397Z,25.00
2022-07-31T01:52:29.799Z,25.00
2022-07-31T01:54:59.873Z,25.00
2022-07-31T01:57:30.115Z,25.00
2022-07-31T02:00:06.472Z,24.90
2022-07-31T02:02:57.484Z,25.00
2022-07-31T02:05:32.182Z,24.90
2022-07-31T02:08:00.969Z,24.80
2022-07-31T02:10:33.837Z,24.90
2022-07-31T02:13:04.641Z,24.80
2022-07-31T02:15:36.047Z,24.80
2022-07-31T02:18:06.173Z,24.80
2022-07-31T02:20:35.024Z,24.80
2022-07-31T02:23:04.267Z,24.70
2022-07-31T02:25:35.702Z,24.60
2022-07-31T02:28:10.235Z,24.60
2022-07-31T02:30:43.505Z,24.60
2022-07-31T02:33:18.009Z,24.60
2022-07-31T02:35:50.545Z,24.60
2022-07-31T02:38:23.316Z,24.70
2022-07-31T02:41:01.209Z,24.60
2022-07-31T02:43:33.057Z,24.60
2022-07-31T02:46:09.727Z,24.60
2022-07-31T02:48:38.826Z,24.60
2022-07-31T02:51:10.774Z,24.70
2022-07-31T02:53:39.901Z,24.60
2022-07-31T02:56:12.225Z,24.60
2022-07-31T02:58:43.064Z,24.60
2022-07-31T03:01:23.784Z,24.60
2022-07-31T03:03:52.509Z,24.50
2022-07-31T03:06:21.148Z,24.50
2022-07-31T03:08:49.687Z,24.50
2022-07-31T03:11:23.416Z,24.50
2022-07-31T03:13:54.820Z,24.50
2022-07-31T03:16:25.529Z,24.60
2022-07-31T03:18:55.058Z,24.60
2022-07-31T03:21:24.642Z,24.70
2022-07-31T03:23:53.544Z,24.70
2022-07-31T03:26:24.382Z,24.70
2022-07-31T03:28:52.846Z,24.60
2022-07-31T03:31:21.449Z,24.60
2022-07-31T03:33:51.264Z,24.60
2022-07-31T03:36:19.743Z,24.60
2022-07-31T03:38:50.589Z,24.60
2022-07-31T03:41:30.657Z,24.50
2022-07-31T03:43:59.577Z,24.50
2022-07-31T03:46:28.317Z,24.50
2022-07-31T03:48:58.588Z,24.50
2022-07-31T03:51:28.861Z,24.40
2022-07-31T03:53:57.669Z,24.40
2022-07-31T03:56:53.781Z,24.40
2022-07-31T03:59:24.258Z,24.40
2022-07-31T04:02:10.268Z,24.40
2022-07-31T04:05:09.528Z,24.50
2022-07-31T04:07:39.486Z,24.50
2022-07-31T04:10:09.373Z,24.40
2022-07-31T04:12:37.975Z,24.40
2022-07-31T04:15:07.688Z,24.40
2022-07-31T04:17:38.317Z,24.40
2022-07-31T04:20:11.355Z,24.40
2022-07-31T04:22:41.322Z,24.40
2022-07-31T04:25:18.441Z,24.50
2022-07-31T04:27:50.377Z,24.60
2022-07-31T04:30:19.155Z,24.70
2022-07-31T04:32:48.695Z,24.70
2022-07-31T04:35:23.504Z,24.80
2022-07-31T04:37:52.565Z,24.80
2022-07-31T04:40:23.078Z,24.80
2022-07-31T04:42:51.599Z,24.90
2022-07-31T04:45:20.264Z,25.00
2022-07-31T04:47:49.043Z,24.90
2022-07-31T04:50:17.794Z,24.90
2022-07-31T04:52:58.620Z,24.90
2022-07-31T04:55:30.713Z,24.90
2022-07-31T04:58:00.681Z,25.00
2022-07-31T05:00:29.689Z,25.10
2022-07-31T05:02:58.358Z,25.10
2022-07-31T05:05:26.961Z,25.20
2022-07-31T05:07:55.468Z,25.20
2022-07-31T05:10:49.961Z,25.10
2022-07-31T05:13:19.338Z,25.10
2022-07-31T05:15:48.369Z,25.10
2022-07-31T05:18:16.883Z,25.10
2022-07-31T05:21:04.169Z,25.10
2022-07-31T05:23:55.879Z,25.30
2022-07-31T05:26:38.868Z,25.40
2022-07-31T05:29:07.698Z,25.50
2022-07-31T05:31:36.408Z,25.50
2022-07-31T05:34:04.993Z,25.60
2022-07-31T05:36:33.876Z,25.60
2022-07-31T05:39:02.398Z,25.70
2022-07-31T05:41:44.164Z,25.70
2022-07-31T05:44:31.361Z,25.80
2022-07-31T05:49:29.074Z,26.20
2022-07-31T05:52:01.549Z,26.70
2022-07-31T05:54:30.536Z,27.10
2022-07-31T05:57:33.598Z,27.10
2022-07-31T06:00:04.485Z,26.90
2022-07-31T06:02:40.590Z,26.80
2022-07-31T06:05:41.703Z,26.80
2022-07-31T06:08:11.752Z,26.80
2022-07-31T06:10:43.902Z,26.90
2022-07-31T06:13:14.842Z,26.90
2022-07-31T06:15:49.445Z,27.10
2022-07-31T06:18:19.218Z,27.20
2022-07-31T06:20:47.927Z,27.20
2022-07-31T06:23:23.095Z,27.30
2022-07-31T06:26:07.337Z,27.50
2022-07-31T06:28:48.931Z,27.60
2022-07-31T06:31:19.565Z,27.70
2022-07-31T06:33:48.819Z,27.80
2022-07-31T06:36:20.672Z,27.80
2022-07-31T06:38:57.771Z,28.00
2022-07-31T06:41:48.383Z,28.30
2022-07-31T06:44:34.746Z,28.30
2022-07-31T06:47:23.939Z,28.40
2022-07-31T06:49:53.038Z,28.40
2022-07-31T06:52:21.753Z,28.60
2022-07-31T06:54:50.392Z,28.70
2022-07-31T06:57:18.984Z,28.70
2022-07-31T06:59:48.906Z,28.70
2022-07-31T07:02:17.476Z,28.60
2022-07-31T07:05:04.466Z,28.60
2022-07-31T07:07:36.967Z,28.60
2022-07-31T07:10:08.093Z,28.80
2022-07-31T07:13:08.610Z,28.90
2022-07-31T07:15:39.491Z,29.10
2022-07-31T07:18:08.268Z,29.00
2022-07-31T07:20:51.275Z,29.10
2022-07-31T07:23:20.581Z,29.10
2022-07-31T07:25:56.023Z,29.20
2022-07-31T07:28:30.978Z,29.40
2022-07-31T07:31:03.993Z,29.40
2022-07-31T07:33:40.132Z,29.30
2022-07-31T07:36:23.452Z,29.50
2022-07-31T07:39:03.515Z,29.50
2022-07-31T07:41:34.116Z,29.60
2022-07-31T07:44:03.257Z,29.50
2022-07-31T07:46:33.790Z,29.60
2022-07-31T07:49:06.813Z,29.70
2022-07-31T07:51:35.406Z,29.80
2022-07-31T07:54:24.128Z,30.00
2022-07-31T07:57:16.346Z,29.70
2022-07-31T08:00:06.660Z,29.70
2022-07-31T08:03:02.679Z,29.80
2022-07-31T08:05:41.571Z,29.90
2022-07-31T08:08:11.526Z,30.10
2022-07-31T08:11:04.937Z,30.20
2022-07-31T08:13:53.005Z,30.40
2022-07-31T08:16:24.573Z,30.50
2022-07-31T08:18:58.256Z,30.40
2022-07-31T08:21:27.560Z,30.40
2022-07-31T08:23:56.605Z,30.60
2022-07-31T08:26:28.143Z,30.70
2022-07-31T08:28:58.014Z,30.80
2022-07-31T08:31:28.858Z,30.80
2022-07-31T08:34:31.231Z,31.20
2022-07-31T08:38:02.208Z,31.50
2022-07-31T08:39:52.025Z,31.70
2022-07-31T08:42:20.714Z,31.80
2022-07-31T08:44:49.251Z,31.70
2022-07-31T08:47:22.372Z,31.80
2022-07-31T08:49:54.914Z,31.80
2022-07-31T08:52:25.091Z,31.70
2022-07-31T08:55:07.342Z,31.60
2022-07-31T08:57:37.083Z,31.80
2022-07-31T09:00:07.637Z,31.60
2022-07-31T09:02:36.308Z,31.50
2022-07-31T09:05:21.837Z,31.60
2022-07-31T09:07:51.050Z,31.50
2022-07-31T09:10:24.934Z,31.40
2022-07-31T09:12:54.443Z,31.40
2022-07-31T09:15:25.709Z,31.50
2022-07-31T09:17:55.135Z,31.60
2022-07-31T09:20:27.719Z,31.60
2022-07-31T09:23:06.850Z,31.40
2022-07-31T09:25:37.595Z,31.40
2022-07-31T09:28:07.980Z,31.40
2022-07-31T09:30:56.109Z,31.50
2022-07-31T09:33:46.005Z,31.70
2022-07-31T09:36:34.023Z,31.90
2022-07-31T09:39:26.807Z,32.00
2022-07-31T09:42:16.569Z,32.10
2022-07-31T09:45:04.185Z,32.20
2022-07-31T09:47:35.252Z,32.20
2022-07-31T09:50:08.548Z,32.30
2022-07-31T09:52:38.708Z,32.30
2022-07-31T09:55:16.536Z,32.30
2022-07-31T09:57:54.568Z,32.10
2022-07-31T10:00:24.117Z,31.80
2022-07-31T10:02:55.650Z,31.80
2022-07-31T10:05:29.267Z,32.00
2022-07-31T10:08:03.542Z,32.20
2022-07-31T10:10:51.144Z,32.10
2022-07-31T10:13:37.529Z,32.10
2022-07-31T10:16:10.176Z,32.40
2022-07-31T10:18:52.231Z,32.60
2022-07-31T10:21:43.449Z,32.50
2022-07-31T10:24:22.893Z,32.40
2022-07-31T10:27:01.501Z,32.00
2022-07-31T10:29:32.945Z,31.90
2022-07-31T10:32:04.664Z,32.00
2022-07-31T10:34:36.607Z,32.10
2022-07-31T10:37:27.641Z,32.50
2022-07-31T10:40:41.247Z,33.00
2022-07-31T10:43:20.997Z,32.80
2022-07-31T10:46:29.876Z,32.70
2022-07-31T10:49:43.615Z,32.50
2022-07-31T10:52:41.945Z,32.20
2022-07-31T10:55:17.831Z,32.10
2022-07-31T10:58:19.829Z,31.90
2022-07-31T11:01:06.817Z,31.40
2022-07-31T11:03:55.948Z,31.20
2022-07-31T11:06:46.814Z,31.10
2022-07-31T11:09:51.181Z,31.00
2022-07-31T11:12:39.136Z,31.10
2022-07-31T11:15:26.700Z,31.30
2022-07-31T11:18:27.769Z,31.60
2022-07-31T11:21:38.114Z,31.80
2022-07-31T11:24:03.285Z,32.00
2022-07-31T11:26:41.568Z,31.90
2022-07-31T11:30:01.342Z,31.90
2022-07-31T11:32:16.236Z,31.90
2022-07-31T11:34:50.320Z,32.10
2022-07-31T11:37:20.650Z,32.20
2022-07-31T11:39:51.621Z,32.20
2022-07-31T11:42:26.490Z,32.20
2022-07-31T11:45:11.088Z,31.80
2022-07-31T11:48:11.096Z,31.90
2022-07-31T11:50:42.048Z,32.20
2022-07-31T11:53:10.898Z,32.20
2022-07-31T11:55:49.986Z,32.20
2022-07-31T11:58:21.016Z,32.20
2022-07-31T12:00:51.044Z,32.10
2022-07-31T12:03:22.360Z,32.20
2022-07-31T12:05:52.393Z,32.20
2022-07-31T12:08:21.816Z,32.30
2022-07-31T12:10:52.827Z,32.00
2022-07-31T12:13:22.938Z,32.30
2022-07-31T12:15:59.408Z,32.30
2022-07-31T12:18:30.808Z,32.30
2022-07-31T12:21:01.412Z,31.90
2022-07-31T12:23:42.005Z,31.90
2022-07-31T12:26:14.521Z,31.90
2022-07-31T12:28:44.019Z,32.10
2022-07-31T12:31:12.502Z,32.10
2022-07-31T12:33:45.797Z,31.90
2022-07-31T12:36:16.322Z,31.90
2022-07-31T12:38:48.253Z,31.80
2022-07-31T12:41:17.984Z,32.10
2022-07-31T12:43:51.801Z,32.50
2022-07-31T12:46:36.321Z,32.90
2022-07-31T12:49:06.713Z,32.80
2022-07-31T12:51:44.722Z,32.70
2022-07-31T12:54:25.799Z,32.70
2022-07-31T12:56:57.007Z,32.50
2022-07-31T12:59:25.576Z,32.70
2022-07-31T13:01:54.122Z,33.00
2022-07-31T13:04:24.162Z,33.00
2022-07-31T13:06:53.356Z,33.10
2022-07-31T13:09:21.833Z,33.50
2022-07-31T13:11:55.872Z,34.00
2022-07-31T13:14:26.360Z,34.50
2022-07-31T13:16:55.639Z,35.30
2022-07-31T13:19:25.583Z,36.00
2022-07-31T13:21:56.955Z,36.00
2022-07-31T13:24:26.685Z,36.00
2022-07-31T13:26:55.154Z,36.60
2022-07-31T13:29:23.637Z,37.20
2022-07-31T13:31:52.385Z,37.70
2022-07-31T13:34:21.251Z,37.70
2022-07-31T13:36:51.093Z,37.80
2022-07-31T13:39:19.593Z,37.80
2022-07-31T13:41:48.047Z,37.80
2022-07-31T13:44:17.051Z,38.00
2022-07-31T13:46:46.671Z,37.80
2022-07-31T13:49:15.770Z,37.50
2022-07-31T13:51:44.307Z,37.50
2022-07-31T13:54:14.465Z,38.00
2022-07-31T13:56:43.746Z,37.70
2022-07-31T13:59:13.834Z,38.10
2022-07-31T14:02:03.661Z,37.80
2022-07-31T14:04:38.356Z,39.10
2022-07-31T14:07:08.332Z,40.10
2022-07-31T14:09:38.692Z,39.90
2022-07-31T14:12:15.567Z,39.90
2022-07-31T14:14:43.985Z,39.50
2022-07-31T14:17:12.509Z,39.20
2022-07-31T14:19:44.395Z,38.70
2022-07-31T14:22:14.496Z,38.90
2022-07-31T14:24:50.038Z,38.90
2022-07-31T14:27:21.560Z,39.70
2022-07-31T14:29:50.228Z,39.90
2022-07-31T14:32:19.419Z,40.30
2022-07-31T14:34:48.124Z,39.50
2022-07-31T14:37:16.589Z,39.20
2022-07-31T14:39:46.483Z,38.50
2022-07-31T14:42:15.061Z,38.00
2022-07-31T14:44:51.436Z,38.80
2022-07-31T14:47:19.928Z,38.80
2022-07-31T14:50:06.760Z,38.80
2022-07-31T14:52:37.163Z,39.10
2022-07-31T14:55:08.023Z,39.10
2022-07-31T14:57:36.578Z,39.70
2022-07-31T15:00:12.485Z,39.40
2022-07-31T15:02:41.238Z,38.50
2022-07-31T15:06:39.557Z,38.70
2022-07-31T15:08:03.682Z,38.00
2022-07-31T15:10:33.992Z,38.80
2022-07-31T15:13:02.531Z,39.50
2022-07-31T15:15:33.821Z,39.50
2022-07-31T15:18:02.542Z,39.40
2022-07-31T15:20:32.770Z,39.10
2022-07-31T15:23:01.860Z,38.10
2022-07-31T15:25:30.878Z,38.10
2022-07-31T15:28:01.666Z,38.00
2022-07-31T15:30:30.055Z,38.30
2022-07-31T15:32:58.540Z,38.60
2022-07-31T15:35:27.243Z,38.60
2022-07-31T15:37:55.674Z,38.50
2022-07-31T15:40:24.069Z,38.80
2022-07-31T15:42:52.760Z,39.60
2022-07-31T15:45:22.742Z,40.70
2022-07-31T15:47:51.265Z,40.40
2022-07-31T15:50:20.597Z,40.20
2022-07-31T15:52:49.310Z,39.70
2022-07-31T15:55:19.444Z,39.10
2022-07-31T15:57:48.037Z,39.80
2022-07-31T16:00:17.148Z,40.10
2022-07-31T16:02:47.253Z,39.60
2022-07-31T16:05:21.330Z,39.40
2022-07-31T16:08:30.614Z,39.10
2022-07-31T16:10:39.360Z,39.30
2022-07-31T16:13:08.210Z,39.40
2022-07-31T16:15:36.735Z,39.30
2022-07-31T16:18:08.666Z,39.10
2022-07-31T16:20:46.610Z,38.80
2022-07-31T16:23:18.818Z,39.10
2022-07-31T16:25:47.426Z,38.90
2022-07-31T16:28:15.860Z,39.30
2022-07-31T16:30:45.807Z,39.00
2022-07-31T16:33:15.924Z,39.10
2022-07-31T16:35:44.489Z,39.20
2022-07-31T16:38:12.926Z,39.10
2022-07-31T16:40:42.378Z,39.50
2022-07-31T16:43:47.375Z,38.80
2022-07-31T16:45:59.377Z,39.30
2022-07-31T16:48:29.240Z,39.60
2022-07-31T16:50:57.814Z,39.60
2022-07-31T16:54:11.218Z,39.10
2022-07-31T16:56:16.807Z,38.90
2022-07-31T16:58:45.339Z,37.80
2022-07-31T17:01:57.855Z,38.00
2022-07-31T17:04:04.738Z,38.10
2022-07-31T17:06:36.459Z,38.30
2022-07-31T17:09:16.319Z,38.00
2022-07-31T17:11:48.346Z,38.20
2022-07-31T17:14:17.797Z,37.80
2022-07-31T17:16:48.823Z,37.70
2022-07-31T17:19:41.712Z,37.70
2022-07-31T17:22:11.146Z,36.30
2022-07-31T17:24:40.500Z,36.00
2022-07-31T17:27:09.626Z,36.00
2022-07-31T17:29:39.414Z,36.30
2022-07-31T17:32:08.407Z,35.30
2022-07-31T17:34:44.966Z,34.40
2022-07-31T17:37:14.039Z,33.60
2022-07-31T17:39:42.643Z,32.60
2022-07-31T17:42:11.223Z,32.00
2022-07-31T17:44:40.530Z,31.60
2022-07-31T17:47:15.087Z,31.40
2022-07-31T17:49:45.229Z,31.10
2022-07-31T17:52:14.332Z,30.60
2022-07-31T17:54:43.154Z,30.40
2022-07-31T17:57:11.645Z,30.50
2022-07-31T17:59:41.064Z,30.40
2022-07-31T18:02:09.984Z,30.30
2022-07-31T18:04:39.150Z,30.20
2022-07-31T18:07:09.813Z,29.80
2022-07-31T18:09:38.289Z,29.60
2022-07-31T18:12:10.858Z,29.50
2022-07-31T18:14:42.817Z,29.40
2022-07-31T18:17:11.315Z,29.30
2022-07-31T18:19:39.786Z,29.10
2022-07-31T18:22:09.648Z,29.00
2022-07-31T18:24:38.245Z,28.90
2022-07-31T18:27:07.631Z,28.90
2022-07-31T18:29:36.157Z,29.00
2022-07-31T18:32:05.199Z,28.90
2022-07-31T18:34:33.970Z,28.90
2022-07-31T18:37:02.486Z,28.90
2022-07-31T18:39:32.387Z,29.00
2022-07-31T18:42:00.858Z,29.00
2022-07-31T18:44:29.908Z,29.00
2022-07-31T18:46:58.386Z,28.80
2022-07-31T18:51:02.175Z,28.70
2022-07-31T18:52:15.479Z,28.60
2022-07-31T18:54:45.547Z,28.70
2022-07-31T18:57:14.057Z,28.70
2022-07-31T18:59:42.508Z,28.70
2022-07-31T19:02:12.246Z,28.60
2022-07-31T19:04:40.944Z,28.50
2022-07-31T19:07:10.232Z,28.40
2022-07-31T19:09:39.001Z,28.40
2022-07-31T19:12:10.128Z,28.30
2022-07-31T19:14:40.003Z,28.30
2022-07-31T19:17:08.702Z,28.30
2022-07-31T19:19:54.270Z,28.20
2022-07-31T19:22:23.638Z,28.10
2022-07-31T19:24:52.235Z,27.90
2022-07-31T19:27:22.340Z,27.90
2022-07-31T19:30:13.901Z,27.80
2022-07-31T19:32:42.658Z,27.90
2022-07-31T19:35:11.254Z,28.10
2022-07-31T19:37:39.737Z,27.90
2022-07-31T19:40:09.153Z,27.90
2022-07-31T19:42:39.514Z,27.90
2022-07-31T19:45:08.814Z,27.90
2022-07-31T19:47:37.275Z,27.80
2022-07-31T19:50:07.521Z,27.80
2022-07-31T19:52:36.087Z,27.80
2022-07-31T19:55:04.618Z,27.90
2022-07-31T19:57:33.165Z,28.00
2022-07-31T20:00:03.102Z,28.00
2022-07-31T20:02:32.708Z,28.00
2022-07-31T20:05:01.169Z,28.00
2022-07-31T20:07:32.734Z,28.00
2022-07-31T20:10:02.185Z,28.10
2022-07-31T20:12:30.700Z,28.10
2022-07-31T20:14:59.146Z,28.10
2022-07-31T20:17:29.323Z,28.00
2022-07-31T20:20:12.631Z,27.80
2022-07-31T20:22:44.625Z,27.70
2022-07-31T20:25:20.431Z,27.60
2022-07-31T20:27:50.080Z,27.50
2022-07-31T20:30:22.068Z,27.40
2022-07-31T20:32:53.094Z,27.30
2022-07-31T20:35:31.083Z,27.20
2022-07-31T20:38:15.826Z,27.20
2022-07-31T20:40:51.159Z,27.20
2022-07-31T20:43:24.414Z,27.10
2022-07-31T20:45:53.287Z,27.10
2022-07-31T20:48:26.132Z,27.10
2022-07-31T20:50:54.658Z,27.10
2022-07-31T20:53:23.194Z,27.00
2022-07-31T20:55:51.802Z,26.90
2022-07-31T20:58:21.583Z,26.80
2022-07-31T21:00:51.577Z,26.80
2022-07-31T21:03:20.930Z,26.70
2022-07-31T21:05:51.140Z,26.70
2022-07-31T21:08:22.191Z,26.90
2022-07-31T21:10:51.638Z,26.90
2022-07-31T21:13:20.295Z,26.90
2022-07-31T21:15:51.413Z,26.80
2022-07-31T21:18:21.251Z,26.60
2022-07-31T21:20:53.712Z,26.40
2022-07-31T21:23:23.722Z,26.40
2022-07-31T21:25:52.751Z,26.30
2022-07-31T21:28:22.126Z,26.20
2022-07-31T21:30:51.119Z,26.10
2022-07-31T21:33:19.913Z,26.10
2022-07-31T21:35:48.613Z,26.00
2022-07-31T21:38:19.899Z,26.00
2022-07-31T21:40:49.064Z,25.90
2022-07-31T21:43:22.248Z,25.90
2022-07-31T21:45:57.320Z,25.80
2022-07-31T21:48:32.279Z,25.70
2022-07-31T21:51:01.550Z,25.70
2022-07-31T21:53:31.397Z,25.70
2022-07-31T21:56:04.095Z,25.70
2022-07-31T21:58:32.659Z,25.60
2022-07-31T22:01:01.174Z,25.70
2022-07-31T22:03:29.763Z,25.80
2022-07-31T22:06:15.704Z,25.70
2022-07-31T22:08:45.679Z,25.70
2022-07-31T22:11:14.165Z,25.70
2022-07-31T22:13:42.613Z,25.70
2022-07-31T22:16:11.319Z,25.70
2022-07-31T22:18:40.422Z,25.80
2022-07-31T22:21:09.854Z,25.70
2022-07-31T22:23:38.901Z,25.70
2022-07-31T22:26:09.283Z,25.70
2022-07-31T22:28:38.284Z,25.60
2022-07-31T22:31:07.307Z,25.60
2022-07-31T22:33:35.928Z,25.60
2022-07-31T22:36:07.187Z,25.50
2022-07-31T22:38:38.152Z,25.50
2022-07-31T22:41:08.242Z,25.50
2022-07-31T22:44:12.552Z,25.50
2022-07-31T22:46:26.122Z,25.40
2022-07-31T22:48:55.672Z,25.30
2022-07-31T22:51:24.429Z,25.20
2022-07-31T22:53:52.851Z,25.10
2022-07-31T22:56:24.469Z,25.00
2022-07-31T22:58:52.943Z,25.10
2022-07-31T23:01:21.432Z,25.20
2022-07-31T23:03:49.927Z,25.20
2022-07-31T23:06:32.068Z,25.20
2022-07-31T23:09:02.284Z,25.20
2022-07-31T23:11:32.133Z,25.30
2022-07-31T23:14:00.994Z,25.30
2022-07-31T23:16:29.455Z,25.30
2022-07-31T23:18:58.193Z,25.30
2022-07-31T23:21:26.698Z,25.40
2022-07-31T23:23:55.368Z,25.40
2022-07-31T23:26:26.317Z,25.50
2022-07-31T23:28:57.023Z,25.50
2022-07-31T23:31:25.628Z,25.50
2022-07-31T23:33:56.097Z,25.30
2022-07-31T23:36:28.100Z,25.30
2022-07-31T23:38:56.655Z,25.30
2022-07-31T23:41:42.689Z,25.30
2022-07-31T23:44:12.685Z,25.30
2022-07-31T23:46:47.169Z,25.40
2022-07-31T23:49:18.083Z,25.40
2022-07-31T23:51:46.619Z,25.50
2022-07-31T23:54:15.851Z,25.50
2022-07-31T23:56:44.309Z,25.50
2022-07-31T23:59:14.110Z,25.50
